createdAt,value
2017-06-23T00:01:55.383Z,53.30
2017-06-23T00:04:21.455Z,52.90
2017-06-23T00:06:47.443Z,52.80
2017-06-23T00:09:13.406Z,52.50
2017-06-23T00:11:40.274Z,52.40
2017-06-23T00:14:06.197Z,52.50
2017-06-23T00:16:32.210Z,52.20
2017-06-23T00:18:58.234Z,52.10
2017-06-23T00:21:24.340Z,52.10
2017-06-23T00:23:50.298Z,52.30
2017-06-23T00:26:16.292Z,52.40
2017-06-23T00:28:42.314Z,52.80
2017-06-23T00:31:08.271Z,53.00
2017-06-23T00:33:34.223Z,52.80
2017-06-23T00:36:00.168Z,52.00
2017-06-23T00:38:26.717Z,51.30
2017-06-23T00:40:53.407Z,50.70
2017-06-23T00:43:19.436Z,50.70
2017-06-23T00:45:45.393Z,50.80
2017-06-23T00:48:11.393Z,50.80
2017-06-23T00:50:37.328Z,51.60
2017-06-23T00:53:03.244Z,50.60
2017-06-23T00:55:29.232Z,50.70
2017-06-23T00:57:55.163Z,51.10
2017-06-23T01:00:21.131Z,51.20
2017-06-23T01:02:47.555Z,52.00
2017-06-23T01:05:13.513Z,52.70
2017-06-23T01:07:39.438Z,53.20
2017-06-23T01:10:05.380Z,53.70
2017-06-23T01:12:32.117Z,54.30
2017-06-23T01:14:58.199Z,54.80
2017-06-23T01:17:24.147Z,55.50
2017-06-23T01:19:50.088Z,56.00
2017-06-23T01:22:16.067Z,56.20
2017-06-23T01:24:42.015Z,56.10
2017-06-23T01:27:07.968Z,56.40
2017-06-23T01:29:33.935Z,56.50
2017-06-23T01:31:59.878Z,56.70
2017-06-23T01:34:25.886Z,56.60
2017-06-23T01:36:51.883Z,56.30
2017-06-23T01:39:17.823Z,56.40
2017-06-23T01:41:43.823Z,56.40
2017-06-23T01:44:09.872Z,56.40
2017-06-23T01:46:36.077Z,56.40
2017-06-23T01:49:03.255Z,56.50
2017-06-23T01:51:29.227Z,56.50
2017-06-23T01:53:55.188Z,56.80
2017-06-23T01:56:21.143Z,56.40
2017-06-23T01:58:47.084Z,56.40
2017-06-23T02:01:13.043Z,56.00
2017-06-23T02:03:39.008Z,55.70
2017-06-23T02:06:04.954Z,55.90
2017-06-23T02:08:30.888Z,55.70
2017-06-23T02:10:57.917Z,55.80
2017-06-23T02:13:23.898Z,56.10
2017-06-23T02:15:50.718Z,56.60
2017-06-23T02:18:16.649Z,56.60
2017-06-23T02:20:42.582Z,56.60
2017-06-23T02:23:08.527Z,56.70
2017-06-23T02:25:34.519Z,56.30
2017-06-23T02:28:00.488Z,56.60
2017-06-23T02:30:26.427Z,57.00
2017-06-23T02:32:52.443Z,57.30
2017-06-23T02:35:18.423Z,57.30
2017-06-23T02:37:44.459Z,57.60
2017-06-23T02:40:10.464Z,57.80
2017-06-23T02:42:36.444Z,57.80
2017-06-23T02:45:02.420Z,58.00
2017-06-23T02:47:28.349Z,58.10
2017-06-23T02:49:54.357Z,58.30
2017-06-23T02:52:20.336Z,58.10
2017-06-23T02:54:46.282Z,58.40
2017-06-23T02:57:12.267Z,58.60
2017-06-23T02:59:38.308Z,58.30
2017-06-23T03:02:04.276Z,58.00
2017-06-23T03:04:30.217Z,58.10
2017-06-23T03:06:56.935Z,58.40
2017-06-23T03:09:22.877Z,58.40
2017-06-23T03:11:48.882Z,58.30
2017-06-23T03:14:15.621Z,58.30
2017-06-23T03:16:41.562Z,58.20
2017-06-23T03:19:07.568Z,58.30
2017-06-23T03:21:33.616Z,58.00
2017-06-23T03:23:59.559Z,57.90
2017-06-23T03:26:25.507Z,58.00
2017-06-23T03:28:51.479Z,58.00
2017-06-23T03:31:17.481Z,57.70
2017-06-23T03:33:44.235Z,57.30
2017-06-23T03:36:10.199Z,57.20
2017-06-23T03:38:36.192Z,57.50
2017-06-23T03:41:02.155Z,57.80
2017-06-23T03:43:28.097Z,58.30
2017-06-23T03:45:54.073Z,58.30
2017-06-23T03:48:20.039Z,57.70
2017-06-23T03:50:45.998Z,57.50
2017-06-23T03:53:11.927Z,57.40
2017-06-23T03:55:37.923Z,57.40
2017-06-23T03:58:04.640Z,58.00
2017-06-23T04:00:30.552Z,57.90
2017-06-23T04:02:56.547Z,58.30
2017-06-23T04:05:22.519Z,58.00
2017-06-23T04:07:49.200Z,57.90
2017-06-23T04:10:15.198Z,57.90
2017-06-23T04:12:41.145Z,57.90
2017-06-23T04:15:07.103Z,58.30
2017-06-23T04:17:33.105Z,58.00
2017-06-23T04:19:59.125Z,58.00
2017-06-23T04:22:25.120Z,58.30
2017-06-23T04:24:51.131Z,58.60
2017-06-23T04:27:17.401Z,58.50
2017-06-23T04:29:43.339Z,58.60
2017-06-23T04:32:09.360Z,58.40
2017-06-23T04:34:35.339Z,58.90
2017-06-23T04:37:01.296Z,58.70
2017-06-23T04:39:27.271Z,58.80
2017-06-23T04:41:53.236Z,58.90
2017-06-23T04:44:19.175Z,58.80
2017-06-23T04:46:45.140Z,58.70
2017-06-23T04:49:11.113Z,58.40
2017-06-23T04:51:37.047Z,58.80
2017-06-23T04:54:03.309Z,58.80
2017-06-23T04:56:29.263Z,58.80
2017-06-23T04:58:55.309Z,58.50
2017-06-23T05:01:21.562Z,58.30
2017-06-23T05:03:47.506Z,58.30
2017-06-23T05:06:13.552Z,58.70
2017-06-23T05:08:39.502Z,58.80
2017-06-23T05:11:05.473Z,59.10
2017-06-23T05:13:31.403Z,58.90
2017-06-23T05:15:57.368Z,59.30
2017-06-23T05:18:23.323Z,58.80
2017-06-23T05:20:49.315Z,58.70
2017-06-23T05:23:15.321Z,58.30
2017-06-23T05:25:41.506Z,58.50
2017-06-23T05:28:07.478Z,58.70
2017-06-23T05:30:34.202Z,58.60
2017-06-23T05:33:00.207Z,58.50
2017-06-23T05:35:26.230Z,58.70
2017-06-23T05:37:52.171Z,58.60
2017-06-23T05:40:18.347Z,58.20
2017-06-23T05:42:44.370Z,58.30
2017-06-23T05:45:10.400Z,58.40
2017-06-23T05:47:36.371Z,58.70
2017-06-23T05:50:02.341Z,59.00
2017-06-23T05:52:28.319Z,59.40
2017-06-23T05:57:25.075Z,58.50
2017-06-23T05:59:51.047Z,58.40
2017-06-23T06:02:17.094Z,58.40
2017-06-23T06:04:43.031Z,58.80
2017-06-23T06:07:08.988Z,58.30
2017-06-23T06:09:35.663Z,56.80
2017-06-23T06:12:01.671Z,56.70
2017-06-23T06:14:27.703Z,56.70
2017-06-23T06:16:53.676Z,57.10
2017-06-23T06:19:19.656Z,56.90
2017-06-23T06:21:45.608Z,57.00
2017-06-23T06:24:11.550Z,56.90
2017-06-23T06:26:37.547Z,57.40
2017-06-23T06:29:03.579Z,57.30
2017-06-23T06:31:29.538Z,56.80
2017-06-23T06:33:55.685Z,56.50
2017-06-23T06:36:21.643Z,56.60
2017-06-23T06:38:47.565Z,56.40
2017-06-23T06:41:13.497Z,56.30
2017-06-23T06:43:39.450Z,55.50
2017-06-23T06:46:05.420Z,55.80
2017-06-23T06:48:31.363Z,55.70
2017-06-23T06:50:57.328Z,55.60
2017-06-23T06:53:23.268Z,55.40
2017-06-23T06:55:49.292Z,55.00
2017-06-23T06:58:15.255Z,54.90
2017-06-23T07:00:41.211Z,54.60
2017-06-23T07:03:07.130Z,54.80
2017-06-23T07:05:33.060Z,54.50
2017-06-23T07:07:58.972Z,53.80
2017-06-23T07:10:24.899Z,52.80
2017-06-23T07:12:50.861Z,53.30
2017-06-23T07:15:16.822Z,53.30
2017-06-23T07:17:42.791Z,53.20
2017-06-23T07:20:08.738Z,53.40
2017-06-23T07:22:35.486Z,53.60
2017-06-23T07:25:01.379Z,53.50
2017-06-23T07:27:27.343Z,53.40
2017-06-23T07:29:53.811Z,53.50
2017-06-23T07:32:19.782Z,53.30
2017-06-23T07:34:45.707Z,53.40
2017-06-23T07:37:11.700Z,53.90
2017-06-23T07:39:37.676Z,53.80
2017-06-23T07:42:03.645Z,53.30
2017-06-23T07:44:29.572Z,53.30
2017-06-23T07:46:55.528Z,52.50
2017-06-23T07:49:21.458Z,53.00
2017-06-23T07:51:47.400Z,53.30
2017-06-23T07:54:13.464Z,53.20
2017-06-23T07:56:40.176Z,52.70
2017-06-23T07:59:06.099Z,52.70
2017-06-23T08:01:32.081Z,52.80
2017-06-23T08:03:58.054Z,52.60
2017-06-23T08:06:24.763Z,52.70
2017-06-23T08:08:50.957Z,52.60
2017-06-23T08:11:16.905Z,52.70
2017-06-23T08:13:42.844Z,52.30
2017-06-23T08:16:08.839Z,52.60
2017-06-23T08:18:34.817Z,52.40
2017-06-23T08:21:01.504Z,51.90
2017-06-23T08:23:27.461Z,52.50
2017-06-23T08:25:53.383Z,51.90
2017-06-23T08:28:19.324Z,52.30
2017-06-23T08:30:45.264Z,52.80
2017-06-23T08:33:11.169Z,52.90
2017-06-23T08:35:37.188Z,52.60
2017-06-23T08:38:03.313Z,52.50
2017-06-23T08:40:29.250Z,52.40
2017-06-23T08:42:55.213Z,52.10
2017-06-23T08:45:21.167Z,51.60
2017-06-23T08:47:47.852Z,51.40
2017-06-23T08:50:13.819Z,51.40
2017-06-23T08:52:39.818Z,52.40
2017-06-23T08:55:05.748Z,52.30
2017-06-23T08:57:31.813Z,51.80
2017-06-23T08:59:57.771Z,51.40
2017-06-23T09:02:23.727Z,51.20
2017-06-23T09:04:49.702Z,51.50
2017-06-23T09:07:15.635Z,51.80
2017-06-23T09:09:41.554Z,51.60
2017-06-23T09:12:07.499Z,51.40
2017-06-23T09:14:33.476Z,50.60
2017-06-23T09:16:59.515Z,50.00
2017-06-23T09:19:25.496Z,50.10
2017-06-23T09:21:51.484Z,50.10
2017-06-23T09:24:17.489Z,50.20
2017-06-23T09:26:43.433Z,50.80
2017-06-23T09:29:09.363Z,50.70
2017-06-23T09:31:35.282Z,50.30
2017-06-23T09:34:01.219Z,50.20
2017-06-23T09:36:27.163Z,49.70
2017-06-23T09:38:53.133Z,49.30
2017-06-23T09:41:19.055Z,49.20
2017-06-23T09:43:45.013Z,49.20
2017-06-23T09:46:10.952Z,49.00
2017-06-23T09:48:36.934Z,49.70
2017-06-23T09:51:03.675Z,49.80
2017-06-23T09:53:29.599Z,49.70
2017-06-23T09:55:55.548Z,49.20
2017-06-23T09:58:21.473Z,49.10
2017-06-23T10:00:47.460Z,47.80
2017-06-23T10:03:13.695Z,47.70
2017-06-23T10:05:39.638Z,47.70
2017-06-23T10:08:05.576Z,46.90
2017-06-23T10:10:31.501Z,46.30
2017-06-23T10:12:57.467Z,46.70
2017-06-23T10:15:23.440Z,46.20
2017-06-23T10:17:49.403Z,46.40
2017-06-23T10:20:15.341Z,47.10
2017-06-23T10:22:41.257Z,46.70
2017-06-23T10:25:07.157Z,46.40
2017-06-23T10:27:33.089Z,45.90
2017-06-23T10:29:59.016Z,45.20
2017-06-23T10:32:24.951Z,45.20
2017-06-23T10:34:50.994Z,45.00
2017-06-23T10:37:16.916Z,44.90
2017-06-23T10:39:42.851Z,45.10
2017-06-23T10:42:08.793Z,45.00
2017-06-23T10:44:34.751Z,45.30
2017-06-23T10:47:00.777Z,45.10
2017-06-23T10:49:26.788Z,45.80
2017-06-23T10:51:52.752Z,45.40
2017-06-23T10:54:18.810Z,45.90
2017-06-23T10:56:44.798Z,45.40
2017-06-23T10:59:10.719Z,45.00
2017-06-23T11:01:36.656Z,45.20
2017-06-23T11:04:02.603Z,44.50
2017-06-23T11:06:29.273Z,44.80
2017-06-23T11:08:55.263Z,44.80
2017-06-23T11:11:21.187Z,44.40
2017-06-23T11:13:47.153Z,43.30
2017-06-23T11:16:13.082Z,43.40
2017-06-23T11:18:39.112Z,42.70
2017-06-23T11:21:05.049Z,42.70
2017-06-23T11:23:31.055Z,42.90
2017-06-23T11:25:57.012Z,41.90
2017-06-23T11:28:23.040Z,42.10
2017-06-23T11:30:49.751Z,41.90
2017-06-23T11:33:15.727Z,41.90
2017-06-23T11:35:41.872Z,41.80
2017-06-23T11:38:08.009Z,41.70
2017-06-23T11:40:33.957Z,41.90
2017-06-23T11:43:01.808Z,42.20
2017-06-23T11:45:27.751Z,42.20
2017-06-23T11:47:55.244Z,41.30
2017-06-23T11:50:21.171Z,40.80
2017-06-23T11:52:47.091Z,40.70
2017-06-23T11:55:13.327Z,40.00
2017-06-23T11:57:39.517Z,41.60
2017-06-23T12:00:06.146Z,41.40
2017-06-23T12:02:32.858Z,41.40
2017-06-23T12:04:58.804Z,41.40
2017-06-23T12:07:24.731Z,41.00
2017-06-23T12:09:50.663Z,40.50
2017-06-23T12:12:16.649Z,39.70
2017-06-23T12:14:42.583Z,39.50
2017-06-23T12:17:09.281Z,38.50
2017-06-23T12:19:35.260Z,38.50
2017-06-23T12:22:01.207Z,39.70
2017-06-23T12:24:27.131Z,39.80
2017-06-23T12:26:53.053Z,39.40
2017-06-23T12:29:18.991Z,39.50
2017-06-23T12:31:44.928Z,39.00
2017-06-23T12:34:10.851Z,38.70
2017-06-23T12:36:36.791Z,38.60
2017-06-23T12:39:03.535Z,38.30
2017-06-23T12:41:29.464Z,38.30
2017-06-23T12:43:55.411Z,37.80
2017-06-23T12:46:21.361Z,37.60
2017-06-23T12:48:47.287Z,37.40
2017-06-23T12:51:13.302Z,37.20
2017-06-23T12:53:39.400Z,37.50
2017-06-23T12:56:05.558Z,37.10
2017-06-23T12:58:31.512Z,37.40
2017-06-23T13:00:57.470Z,36.80
2017-06-23T13:03:23.419Z,37.30
2017-06-23T13:05:49.367Z,37.00
2017-06-23T13:08:16.092Z,37.10
2017-06-23T13:10:42.051Z,37.10
2017-06-23T13:13:08.000Z,38.10
2017-06-23T13:15:34.056Z,38.60
2017-06-23T13:18:00.066Z,38.20
2017-06-23T13:20:26.040Z,37.30
2017-06-23T13:22:52.268Z,37.10
2017-06-23T13:25:18.188Z,36.90
2017-06-23T13:27:44.111Z,36.90
2017-06-23T13:30:10.152Z,37.40
2017-06-23T13:32:36.113Z,37.70
2017-06-23T13:35:02.084Z,37.20
2017-06-23T13:37:28.179Z,36.60
2017-06-23T13:39:54.907Z,36.40
2017-06-23T13:42:20.880Z,36.30
2017-06-23T13:44:46.844Z,36.80
2017-06-23T13:47:12.778Z,36.90
2017-06-23T13:49:38.752Z,36.70
2017-06-23T13:52:04.829Z,36.10
2017-06-23T13:54:30.790Z,35.70
2017-06-23T13:56:56.762Z,35.80
2017-06-23T13:59:22.797Z,35.60
2017-06-23T14:01:48.820Z,35.60
2017-06-23T14:04:14.793Z,35.00
2017-06-23T14:06:40.801Z,34.20
2017-06-23T14:09:07.619Z,33.80
2017-06-23T14:11:33.569Z,34.50
2017-06-23T14:13:59.548Z,35.10
2017-06-23T14:16:25.544Z,34.10
2017-06-23T14:18:52.091Z,33.60
2017-06-23T14:21:18.313Z,33.20
2017-06-23T14:23:44.282Z,32.30
2017-06-23T14:26:10.237Z,32.10
2017-06-23T14:28:36.199Z,32.10
2017-06-23T14:31:03.003Z,32.80
2017-06-23T14:33:28.960Z,32.80
2017-06-23T14:35:54.904Z,33.30
2017-06-23T14:38:20.843Z,33.30
2017-06-23T14:40:46.862Z,33.40
2017-06-23T14:43:13.233Z,33.00
2017-06-23T14:45:39.955Z,31.90
2017-06-23T14:48:05.905Z,31.90
2017-06-23T14:50:32.827Z,31.40
2017-06-23T14:52:59.879Z,31.80
2017-06-23T14:55:25.930Z,31.70
2017-06-23T14:57:52.677Z,31.40
2017-06-23T15:00:18.646Z,31.40
2017-06-23T15:02:44.624Z,30.20
2017-06-23T15:05:10.615Z,30.90
2017-06-23T15:07:36.621Z,30.70
2017-06-23T15:10:03.600Z,30.60
2017-06-23T15:12:29.559Z,30.90
2017-06-23T15:14:55.527Z,31.40
2017-06-23T15:17:21.567Z,31.70
2017-06-23T15:19:47.643Z,31.50
2017-06-23T15:22:13.674Z,29.80
2017-06-23T15:24:39.671Z,29.20
2017-06-23T15:27:05.722Z,29.60
2017-06-23T15:29:31.691Z,29.80
2017-06-23T15:31:57.685Z,30.20
2017-06-23T15:34:23.622Z,30.00
2017-06-23T15:36:49.875Z,29.90
2017-06-23T15:39:15.919Z,29.90
2017-06-23T15:41:41.908Z,30.20
2017-06-23T15:44:07.946Z,30.90
2017-06-23T15:46:33.956Z,30.30
2017-06-23T15:48:59.927Z,30.20
2017-06-23T15:51:26.007Z,30.10
2017-06-23T15:53:52.016Z,29.50
2017-06-23T15:56:18.198Z,29.90
2017-06-23T15:58:44.194Z,29.90
2017-06-23T16:01:11.052Z,30.20
2017-06-23T16:03:38.625Z,30.00
2017-06-23T16:06:04.964Z,30.70
2017-06-23T16:08:31.006Z,30.60
2017-06-23T16:10:57.644Z,30.00
2017-06-23T16:13:23.891Z,29.80
2017-06-23T16:15:50.463Z,30.50
2017-06-23T16:18:16.509Z,31.00
2017-06-23T16:20:42.752Z,30.70
2017-06-23T16:23:08.843Z,30.30
2017-06-23T16:25:34.817Z,30.30
2017-06-23T16:28:00.815Z,30.20
2017-06-23T16:30:26.802Z,30.40
2017-06-23T16:32:52.788Z,30.40
2017-06-23T16:35:18.782Z,30.10
2017-06-23T16:37:44.796Z,29.90
2017-06-23T16:40:10.731Z,30.00
2017-06-23T16:42:36.687Z,30.00
2017-06-23T16:45:02.611Z,29.50
2017-06-23T16:47:28.558Z,29.10
2017-06-23T16:49:54.847Z,28.70
2017-06-23T16:52:20.822Z,28.90
2017-06-23T16:54:47.588Z,28.70
2017-06-23T16:57:13.587Z,28.30
2017-06-23T16:59:40.321Z,28.10
2017-06-23T17:02:06.289Z,28.00
2017-06-23T17:04:32.282Z,28.80
2017-06-23T17:06:58.287Z,28.80
2017-06-23T17:09:24.260Z,28.90
2017-06-23T17:11:50.207Z,28.60
2017-06-23T17:14:17.623Z,28.40
2017-06-23T17:16:43.645Z,28.70
2017-06-23T17:19:11.414Z,28.70
2017-06-23T17:21:37.412Z,28.80
2017-06-23T17:24:03.428Z,28.90
2017-06-23T17:26:29.439Z,29.30
2017-06-23T17:28:55.389Z,29.50
2017-06-23T17:31:21.456Z,29.30
2017-06-23T17:33:47.414Z,29.50
2017-06-23T17:36:13.406Z,29.50
2017-06-23T17:38:39.425Z,29.40
2017-06-23T17:41:05.561Z,29.00
2017-06-23T17:43:31.531Z,29.20
2017-06-23T17:45:57.495Z,29.20
2017-06-23T17:48:23.483Z,29.30
2017-06-23T17:50:50.511Z,29.40
2017-06-23T17:53:16.894Z,30.00
2017-06-23T17:55:42.893Z,30.50
2017-06-23T17:58:09.758Z,30.80
2017-06-23T18:00:38.117Z,30.80
2017-06-23T18:03:04.159Z,31.00
2017-06-23T18:05:30.196Z,30.10
2017-06-23T18:07:56.221Z,30.70
2017-06-23T18:10:22.408Z,31.50
2017-06-23T18:12:49.679Z,31.80
2017-06-23T18:15:15.688Z,32.10
2017-06-23T18:17:42.016Z,31.80
2017-06-23T18:20:08.975Z,31.70
2017-06-23T18:22:35.921Z,32.60
2017-06-23T18:25:04.608Z,32.30
2017-06-23T18:27:32.395Z,32.80
2017-06-23T18:30:02.038Z,32.80
2017-06-23T18:32:28.943Z,32.60
2017-06-23T18:34:55.051Z,32.50
2017-06-23T18:37:21.076Z,32.60
2017-06-23T18:39:47.039Z,32.60
2017-06-23T18:42:13.299Z,33.00
2017-06-23T18:44:39.351Z,33.50
2017-06-23T18:47:05.295Z,33.90
2017-06-23T18:49:31.338Z,34.10
2017-06-23T18:51:57.343Z,34.30
2017-06-23T18:54:24.346Z,34.80
2017-06-23T18:56:50.552Z,34.70
2017-06-23T18:59:17.469Z,34.90
2017-06-23T19:04:14.527Z,35.00
2017-06-23T19:06:40.570Z,35.40
2017-06-23T19:09:06.597Z,35.50
2017-06-23T19:11:32.604Z,35.60
2017-06-23T19:13:58.724Z,35.90
2017-06-23T19:16:26.186Z,36.00
2017-06-23T19:18:53.726Z,36.20
2017-06-23T19:21:19.844Z,36.60
2017-06-23T19:23:45.801Z,36.80
2017-06-23T19:26:11.939Z,36.70
2017-06-23T19:28:38.573Z,37.00
2017-06-23T19:31:04.787Z,37.20
2017-06-23T19:33:31.262Z,37.10
2017-06-23T19:35:57.203Z,37.20
2017-06-23T19:38:23.167Z,37.30
2017-06-23T19:40:49.169Z,37.50
2017-06-23T19:43:15.238Z,38.00
2017-06-23T19:45:41.231Z,37.40
2017-06-23T19:48:07.169Z,37.50
2017-06-23T19:50:33.376Z,37.60
2017-06-23T19:52:59.346Z,37.60
2017-06-23T19:55:26.346Z,37.80
2017-06-23T19:57:52.995Z,38.20
2017-06-23T20:00:19.006Z,38.50
2017-06-23T20:02:45.156Z,38.90
2017-06-23T20:05:12.700Z,39.50
2017-06-23T20:07:38.716Z,39.50
2017-06-23T20:10:07.784Z,40.60
2017-06-23T20:12:35.077Z,40.00
2017-06-23T20:15:01.129Z,40.10
2017-06-23T20:17:27.135Z,40.20
2017-06-23T20:19:54.411Z,40.40
2017-06-23T20:22:20.389Z,40.80
2017-06-23T20:24:46.417Z,41.00
2017-06-23T20:27:19.015Z,41.30
2017-06-23T20:29:44.988Z,41.40
2017-06-23T20:32:10.943Z,41.60
2017-06-23T20:34:37.753Z,41.70
2017-06-23T20:37:03.697Z,41.60
2017-06-23T20:39:29.763Z,41.40
2017-06-23T20:41:55.772Z,41.60
2017-06-23T20:44:21.727Z,41.20
2017-06-23T20:46:47.781Z,41.30
2017-06-23T20:49:14.344Z,41.40
2017-06-23T20:51:40.343Z,41.60
2017-06-23T20:54:06.281Z,41.70
2017-06-23T20:56:32.309Z,41.60
2017-06-23T20:58:58.363Z,41.70
2017-06-23T21:01:24.367Z,41.80
2017-06-23T21:03:50.439Z,42.00
2017-06-23T21:06:16.451Z,42.00
2017-06-23T21:08:43.274Z,42.40
2017-06-23T21:11:09.979Z,43.10
2017-06-23T21:13:35.928Z,42.40
2017-06-23T21:16:01.873Z,42.60
2017-06-23T21:18:28.023Z,42.60
2017-06-23T21:20:53.984Z,42.80
2017-06-23T21:23:19.959Z,42.80
2017-06-23T21:25:45.935Z,42.90
2017-06-23T21:28:11.970Z,43.00
2017-06-23T21:30:38.018Z,43.30
2017-06-23T21:33:04.095Z,43.50
2017-06-23T21:35:30.043Z,43.60
2017-06-23T21:37:56.048Z,43.60
2017-06-23T21:40:34.250Z,44.40
2017-06-23T21:43:00.227Z,43.90
2017-06-23T21:45:26.310Z,44.20
2017-06-23T21:47:52.335Z,44.30
2017-06-23T21:50:18.364Z,44.50
2017-06-23T21:52:44.418Z,44.50
2017-06-23T21:55:10.358Z,44.40
2017-06-23T21:57:36.327Z,44.60
2017-06-23T22:00:02.284Z,44.20
2017-06-23T22:02:28.319Z,44.30
2017-06-23T22:04:54.745Z,44.30
2017-06-23T22:07:20.735Z,44.20
2017-06-23T22:09:46.759Z,44.50
2017-06-23T22:12:12.771Z,44.50
2017-06-23T22:14:39.538Z,44.60
2017-06-23T22:17:05.503Z,44.60
2017-06-23T22:19:31.577Z,44.60
2017-06-23T22:21:57.566Z,44.60
2017-06-23T22:24:23.496Z,44.70
2017-06-23T22:26:49.432Z,44.70
2017-06-23T22:29:15.353Z,44.90
2017-06-23T22:31:41.351Z,44.90
2017-06-23T22:34:07.328Z,45.00
2017-06-23T22:36:34.164Z,45.20
2017-06-23T22:39:00.066Z,45.50
2017-06-23T22:41:26.048Z,46.10
2017-06-23T22:43:52.028Z,46.30
2017-06-23T22:46:17.984Z,46.50
2017-06-23T22:48:43.957Z,46.60
2017-06-23T22:51:09.909Z,46.60
2017-06-23T22:53:35.937Z,46.70
2017-06-23T22:56:02.207Z,46.90
2017-06-23T22:58:28.189Z,46.70
2017-06-23T23:00:54.155Z,46.80
2017-06-23T23:03:20.208Z,46.90
2017-06-23T23:05:47.029Z,47.00
2017-06-23T23:08:13.080Z,47.20
2017-06-23T23:10:39.027Z,47.30
2017-06-23T23:13:04.989Z,47.30
2017-06-23T23:15:30.925Z,47.30
2017-06-23T23:17:56.932Z,47.50
2017-06-23T23:20:22.892Z,47.60
2017-06-23T23:22:49.713Z,47.60
2017-06-23T23:25:15.708Z,47.90
2017-06-23T23:27:41.658Z,48.10
2017-06-23T23:30:07.612Z,48.10
2017-06-23T23:32:33.564Z,48.00
2017-06-23T23:34:59.577Z,48.70
2017-06-23T23:37:25.548Z,48.80
2017-06-23T23:39:51.495Z,48.90
2017-06-23T23:42:17.481Z,48.90
2017-06-23T23:44:43.494Z,49.10
2017-06-23T23:47:09.630Z,49.00
2017-06-23T23:49:35.566Z,49.30
2017-06-23T23:52:01.761Z,49.20
2017-06-23T23:54:27.711Z,49.10
2017-06-23T23:56:53.638Z,49.70
2017-06-23T23:59:19.552Z,49.20
